Airfield :
LOGIN :

Register | Disclaimer

   EN    FR    IT 

 










Legend :    VFR   Marginal VFR   IFR   Intensive IFR   Very Intensive IFR
Visi :
Ceiling :
>= 8 km
>= 3000ft
5 to 8 km
1000 to 3000 ft
1500m to 5 km
500 to 1000 ft
800 to 1500m
200 to 500 ft
< 800m
< 200 ft
Symbols :   Thunderstorms  Fog  Heavy snow  Heavy precipitations  Wind > 20 kt
SIGMETs :     Misc.  Thunderstorms  Icing  Turbulence  Mountain Waves  Volcanic Ashes







- Airport Elevation : 436 ft
- IATA code : ANG
- Download approach charts


LFBU - Angoulême Brie Champniers

CURRENT METAR :
  • 251400Z AUTO 28010KT 9999 FEW013 SCT086 12/07 Q1007 TEMPO 24015G30KT 4000 SHRA FEW030CB BKN040TCU

EXPIRED METARs :
  • 251330Z AUTO 27009KT 230V300 9999 BKN010/// BKN014/// BKN100/// ///CB 10/08 Q1008 TEMPO 24015G30KT 4000 SHRA FEW030CB BKN040TCU
  • 251300Z AUTO 24003KT 160V300 9999 -TSRA FEW017/// SCT045/// BKN056/// ///CB 08/07 Q1007 TEMPO 24015G30KT 4000 SHRA
  • 251230Z AUTO 24017G35KT 210V280 2200 0900 R28/1000U +TSRA BCFG FEW017/// BKN025/// BKN034/// ///CB 07/05 Q1007 TEMPO 4000 SHRA
  • 251200Z AUTO 16007KT 130V200 9999 FEW038/// BKN045/// BKN074/// ///CB 13/08 Q1005 TEMPO 24015G30KT 1500 TSRA
  • 251130Z AUTO 17007KT 140V210 9999 FEW028/// SCT037/// BKN043/// ///CB 13/08 Q1006 TEMPO 24015G30KT 3000 SHRA

TAF AMD TAF LFBU
Valid from the 25 at 12:00 until the 26 at 12:00 UTC


251200Z 2512/2612 22005KT 9999 BKN030
TEMPO 2512/2516 24015G30KT 4000 SHRA FEW030CB BKN040TCU
TEMPO 2512/2514 1500 TSRA BKN025CB
TEMPO 2602/2606 BKN020
No reported NOTAMs for that airfield.
3 SIGMETs reported for the Bordeaux FIR (LFBB) :
 
Embedded thunderstorms
LFBB SIGMET 12 VALID 251350/251600 LFPW
LFBB BORDEAUX FIR/UIR EMBD TS OBS AT 1350Z WI N4215 E00200 - N4230 E00030 - N4715 E00000 - N4715 E00145 - N4215 E00200 TOP FL290 MOV NE 25KT NC=
Severe turbulence
LFBB SIGMET 11 VALID 251330/251730 LFPW
LFBB BORDEAUX FIR/UIR SEV TURB FCST WI N4245 E00230 - N4215 E00230 - N4245 W00015 - N4300 W00015 - N4245 E00230 SFC/FL120 STNR WKN=
Severe turbulence
LFBB SIGMET 10 VALID 251200/251400 LFPW
LFBB BORDEAUX FIR/UIR SEV TURB OBS AT 1200Z WI N4230 E00115 - N4300 W00130 - N4530 E00130 - N4415 E00245 - N4230 E00115 FL300/410 MOV E 10KT NC=



MET'MAP, your aeronautical weather chart ! - Copyright ORBIFLY December 2007 - Disclaimer

ORBIFLY MET'MAP TEAM :

Programming & Development : Alexandra Zaïnal
Concept & Development : Baudouin d'Aumeries
Co-Development & Prog : Marc-Olivier Méhu
Technical & hardware support : Manuel Goepfert

Contact : metmap@orbifly.com




SOURCES & CREDITS :

   NOAA